sensor_id;sensor_type;location;lat;lon;timestamp;P1;durP1;ratioP1;P2;durP2;ratioP2
33902;SDS011;20194;50.950;5.346;2023-07-29T00:01:41;3.03;;;1.63;;
33902;SDS011;20194;50.950;5.346;2023-07-29T00:04:08;2.60;;;1.65;;
33902;SDS011;20194;50.950;5.346;2023-07-29T00:06:34;8.95;;;2.00;;
33902;SDS011;20194;50.950;5.346;2023-07-29T00:09:00;4.13;;;1.60;;
33902;SDS011;20194;50.950;5.346;2023-07-29T00:11:27;2.78;;;1.58;;
33902;SDS011;20194;50.950;5.346;2023-07-29T00:13:52;4.22;;;1.77;;
33902;SDS011;20194;50.950;5.346;2023-07-29T00:16:18;4.85;;;2.00;;
33902;SDS011;20194;50.950;5.346;2023-07-29T00:18:47;3.38;;;1.65;;
33902;SDS011;20194;50.950;5.346;2023-07-29T00:21:15;5.53;;;1.70;;
33902;SDS011;20194;50.950;5.346;2023-07-29T00:23:41;2.95;;;2.00;;
33902;SDS011;20194;50.950;5.346;2023-07-29T00:26:06;3.15;;;1.80;;
33902;SDS011;20194;50.950;5.346;2023-07-29T00:28:32;4.53;;;2.22;;
33902;SDS011;20194;50.950;5.346;2023-07-29T00:30:58;4.20;;;1.88;;
33902;SDS011;20194;50.950;5.346;2023-07-29T00:33:24;2.00;;;1.90;;
33902;SDS011;20194;50.950;5.346;2023-07-29T00:35:49;2.17;;;1.80;;
33902;SDS011;20194;50.950;5.346;2023-07-29T00:38:15;3.20;;;2.13;;
33902;SDS011;20194;50.950;5.346;2023-07-29T00:40:41;3.55;;;2.20;;
33902;SDS011;20194;50.950;5.346;2023-07-29T00:43:08;6.20;;;1.80;;
33902;SDS011;20194;50.950;5.346;2023-07-29T00:45:34;5.05;;;1.88;;
33902;SDS011;20194;50.950;5.346;2023-07-29T00:48:00;4.38;;;1.80;;
33902;SDS011;20194;50.950;5.346;2023-07-29T00:50:27;10.60;;;2.65;;
33902;SDS011;20194;50.950;5.346;2023-07-29T00:52:55;5.38;;;2.03;;
33902;SDS011;20194;50.950;5.346;2023-07-29T00:55:22;3.72;;;1.90;;
33902;SDS011;20194;50.950;5.346;2023-07-29T00:57:48;4.90;;;2.05;;
33902;SDS011;20194;50.950;5.346;2023-07-29T01:00:18;2.10;;;1.90;;
33902;SDS011;20194;50.950;5.346;2023-07-29T01:02:44;4.07;;;1.92;;
33902;SDS011;20194;50.950;5.346;2023-07-29T01:05:11;2.50;;;2.30;;
33902;SDS011;20194;50.950;5.346;2023-07-29T01:07:42;2.95;;;2.10;;
33902;SDS011;20194;50.950;5.346;2023-07-29T01:15:48;4.05;;;2.42;;
33902;SDS011;20194;50.950;5.346;2023-07-29T01:18:28;2.42;;;1.90;;
33902;SDS011;20194;50.950;5.346;2023-07-29T01:20:59;7.50;;;2.22;;
33902;SDS011;20194;50.950;5.346;2023-07-29T01:23:29;4.22;;;2.03;;
33902;SDS011;20194;50.950;5.346;2023-07-29T01:25:56;1.98;;;1.67;;
33902;SDS011;20194;50.950;5.346;2023-07-29T01:28:22;2.33;;;1.75;;
33902;SDS011;20194;50.950;5.346;2023-07-29T01:30:49;3.70;;;1.80;;
33902;SDS011;20194;50.950;5.346;2023-07-29T01:33:20;4.03;;;1.80;;
33902;SDS011;20194;50.950;5.346;2023-07-29T01:36:05;4.18;;;1.95;;
33902;SDS011;20194;50.950;5.346;2023-07-29T01:38:36;4.35;;;1.75;;
33902;SDS011;20194;50.950;5.346;2023-07-29T01:41:06;2.50;;;1.90;;
33902;SDS011;20194;50.950;5.346;2023-07-29T01:43:33;2.40;;;1.88;;
33902;SDS011;20194;50.950;5.346;2023-07-29T01:46:04;2.88;;;2.15;;
33902;SDS011;20194;50.950;5.346;2023-07-29T01:48:30;4.50;;;2.20;;
33902;SDS011;20194;50.950;5.346;2023-07-29T01:50:57;3.45;;;2.10;;
33902;SDS011;20194;50.950;5.346;2023-07-29T01:53:22;5.35;;;2.47;;
33902;SDS011;20194;50.950;5.346;2023-07-29T01:55:48;4.15;;;2.28;;
33902;SDS011;20194;50.950;5.346;2023-07-29T01:58:14;3.13;;;2.15;;
33902;SDS011;20194;50.950;5.346;2023-07-29T02:00:40;2.63;;;2.00;;
33902;SDS011;20194;50.950;5.346;2023-07-29T02:03:06;1.98;;;1.80;;
33902;SDS011;20194;50.950;5.346;2023-07-29T02:05:31;4.75;;;1.95;;
33902;SDS011;20194;50.950;5.346;2023-07-29T02:07:57;3.40;;;1.92;;
33902;SDS011;20194;50.950;5.346;2023-07-29T02:10:23;4.43;;;1.98;;
33902;SDS011;20194;50.950;5.346;2023-07-29T02:12:48;4.70;;;1.80;;
33902;SDS011;20194;50.950;5.346;2023-07-29T02:15:15;2.78;;;2.10;;
33902;SDS011;20194;50.950;5.346;2023-07-29T02:17:41;2.38;;;2.05;;
33902;SDS011;20194;50.950;5.346;2023-07-29T02:20:07;3.15;;;1.63;;
33902;SDS011;20194;50.950;5.346;2023-07-29T02:22:33;4.05;;;2.13;;
33902;SDS011;20194;50.950;5.346;2023-07-29T02:24:59;2.60;;;1.83;;
33902;SDS011;20194;50.950;5.346;2023-07-29T02:27:26;2.00;;;1.80;;
33902;SDS011;20194;50.950;5.346;2023-07-29T02:29:52;2.25;;;1.83;;
33902;SDS011;20194;50.950;5.346;2023-07-29T02:32:18;2.53;;;1.55;;
33902;SDS011;20194;50.950;5.346;2023-07-29T02:34:44;4.63;;;1.60;;
33902;SDS011;20194;50.950;5.346;2023-07-29T02:37:10;1.58;;;1.48;;
33902;SDS011;20194;50.950;5.346;2023-07-29T02:39:36;2.22;;;1.60;;
33902;SDS011;20194;50.950;5.346;2023-07-29T02:42:02;3.58;;;1.60;;
33902;SDS011;20194;50.950;5.346;2023-07-29T02:44:28;5.68;;;1.52;;
33902;SDS011;20194;50.950;5.346;2023-07-29T02:46:54;2.05;;;1.40;;
33902;SDS011;20194;50.950;5.346;2023-07-29T02:49:21;4.88;;;1.48;;
33902;SDS011;20194;50.950;5.346;2023-07-29T02:51:47;7.53;;;1.80;;
33902;SDS011;20194;50.950;5.346;2023-07-29T02:54:12;2.03;;;1.63;;
33902;SDS011;20194;50.950;5.346;2023-07-29T02:56:39;1.77;;;1.30;;
33902;SDS011;20194;50.950;5.346;2023-07-29T02:59:04;5.10;;;1.50;;
33902;SDS011;20194;50.950;5.346;2023-07-29T03:01:30;3.38;;;1.98;;
33902;SDS011;20194;50.950;5.346;2023-07-29T03:03:56;4.72;;;2.08;;
33902;SDS011;20194;50.950;5.346;2023-07-29T03:06:22;6.88;;;1.80;;
33902;SDS011;20194;50.950;5.346;2023-07-29T03:08:48;2.35;;;2.03;;
33902;SDS011;20194;50.950;5.346;2023-07-29T03:11:14;3.10;;;1.98;;
33902;SDS011;20194;50.950;5.346;2023-07-29T03:13:41;2.05;;;1.77;;
33902;SDS011;20194;50.950;5.346;2023-07-29T03:16:10;6.15;;;1.55;;
33902;SDS011;20194;50.950;5.346;2023-07-29T03:18:37;4.38;;;1.80;;
33902;SDS011;20194;50.950;5.346;2023-07-29T03:21:03;4.93;;;1.63;;
33902;SDS011;20194;50.950;5.346;2023-07-29T03:23:29;4.32;;;1.80;;
33902;SDS011;20194;50.950;5.346;2023-07-29T03:25:56;5.97;;;1.90;;
33902;SDS011;20194;50.950;5.346;2023-07-29T03:28:27;3.20;;;2.00;;
33902;SDS011;20194;50.950;5.346;2023-07-29T03:30:55;4.75;;;2.08;;
33902;SDS011;20194;50.950;5.346;2023-07-29T03:33:21;3.45;;;2.05;;
33902;SDS011;20194;50.950;5.346;2023-07-29T03:35:48;6.78;;;1.70;;
33902;SDS011;20194;50.950;5.346;2023-07-29T03:38:14;4.63;;;2.10;;
33902;SDS011;20194;50.950;5.346;2023-07-29T03:40:40;3.60;;;1.80;;
33902;SDS011;20194;50.950;5.346;2023-07-29T03:43:06;3.90;;;1.77;;
33902;SDS011;20194;50.950;5.346;2023-07-29T03:45:32;4.95;;;1.50;;
33902;SDS011;20194;50.950;5.346;2023-07-29T03:47:58;7.13;;;1.73;;
33902;SDS011;20194;50.950;5.346;2023-07-29T03:50:24;3.72;;;1.75;;
33902;SDS011;20194;50.950;5.346;2023-07-29T03:52:51;1.60;;;1.48;;
33902;SDS011;20194;50.950;5.346;2023-07-29T03:55:17;4.00;;;1.73;;
33902;SDS011;20194;50.950;5.346;2023-07-29T03:57:43;3.47;;;1.50;;
33902;SDS011;20194;50.950;5.346;2023-07-29T04:00:08;2.42;;;1.67;;
33902;SDS011;20194;50.950;5.346;2023-07-29T04:02:35;3.80;;;1.80;;
33902;SDS011;20194;50.950;5.346;2023-07-29T04:05:04;5.85;;;1.65;;
33902;SDS011;20194;50.950;5.346;2023-07-29T04:07:33;3.28;;;1.70;;
33902;SDS011;20194;50.950;5.346;2023-07-29T04:09:59;4.80;;;2.60;;
33902;SDS011;20194;50.950;5.346;2023-07-29T04:12:26;6.22;;;2.25;;
33902;SDS011;20194;50.950;5.346;2023-07-29T04:14:52;2.80;;;1.45;;
33902;SDS011;20194;50.950;5.346;2023-07-29T04:17:18;5.90;;;1.90;;
33902;SDS011;20194;50.950;5.346;2023-07-29T04:19:44;2.80;;;2.15;;
33902;SDS011;20194;50.950;5.346;2023-07-29T04:22:10;2.95;;;2.10;;
33902;SDS011;20194;50.950;5.346;2023-07-29T04:24:35;2.00;;;1.80;;
33902;SDS011;20194;50.950;5.346;2023-07-29T04:27:03;2.78;;;2.10;;
33902;SDS011;20194;50.950;5.346;2023-07-29T04:29:28;2.97;;;2.15;;
33902;SDS011;20194;50.950;5.346;2023-07-29T04:31:54;4.32;;;2.10;;
33902;SDS011;20194;50.950;5.346;2023-07-29T04:34:20;6.43;;;2.28;;
33902;SDS011;20194;50.950;5.346;2023-07-29T04:36:46;6.00;;;1.95;;
33902;SDS011;20194;50.950;5.346;2023-07-29T04:39:12;4.57;;;2.03;;
33902;SDS011;20194;50.950;5.346;2023-07-29T04:41:38;2.00;;;1.80;;
33902;SDS011;20194;50.950;5.346;2023-07-29T04:44:04;3.85;;;2.15;;
33902;SDS011;20194;50.950;5.346;2023-07-29T04:46:30;5.43;;;2.70;;
33902;SDS011;20194;50.950;5.346;2023-07-29T04:48:55;18.60;;;2.45;;
33902;SDS011;20194;50.950;5.346;2023-07-29T04:51:21;3.90;;;2.03;;
33902;SDS011;20194;50.950;5.346;2023-07-29T04:53:47;2.90;;;2.20;;
33902;SDS011;20194;50.950;5.346;2023-07-29T04:56:13;3.88;;;2.30;;
33902;SDS011;20194;50.950;5.346;2023-07-29T04:58:39;3.92;;;2.33;;
33902;SDS011;20194;50.950;5.346;2023-07-29T05:01:05;4.90;;;2.28;;
33902;SDS011;20194;50.950;5.346;2023-07-29T05:03:31;6.57;;;2.30;;
33902;SDS011;20194;50.950;5.346;2023-07-29T05:05:57;4.43;;;2.42;;
33902;SDS011;20194;50.950;5.346;2023-07-29T05:08:24;5.35;;;2.75;;
33902;SDS011;20194;50.950;5.346;2023-07-29T05:10:50;3.88;;;2.28;;
33902;SDS011;20194;50.950;5.346;2023-07-29T05:13:17;5.57;;;2.10;;
33902;SDS011;20194;50.950;5.346;2023-07-29T05:15:43;4.43;;;1.95;;
33902;SDS011;20194;50.950;5.346;2023-07-29T05:18:09;9.80;;;2.47;;
33902;SDS011;20194;50.950;5.346;2023-07-29T05:20:35;5.78;;;2.55;;
33902;SDS011;20194;50.950;5.346;2023-07-29T05:23:00;5.40;;;2.25;;
33902;SDS011;20194;50.950;5.346;2023-07-29T05:25:26;6.60;;;2.33;;
33902;SDS011;20194;50.950;5.346;2023-07-29T05:27:52;5.15;;;2.17;;
33902;SDS011;20194;50.950;5.346;2023-07-29T05:30:18;4.72;;;2.20;;
33902;SDS011;20194;50.950;5.346;2023-07-29T05:32:44;5.05;;;2.20;;
33902;SDS011;20194;50.950;5.346;2023-07-29T05:35:10;2.63;;;1.95;;
33902;SDS011;20194;50.950;5.346;2023-07-29T05:37:37;5.93;;;2.33;;
33902;SDS011;20194;50.950;5.346;2023-07-29T05:40:04;6.53;;;2.60;;
33902;SDS011;20194;50.950;5.346;2023-07-29T05:42:32;5.90;;;2.42;;
33902;SDS011;20194;50.950;5.346;2023-07-29T05:44:58;4.07;;;2.30;;
33902;SDS011;20194;50.950;5.346;2023-07-29T05:47:23;4.60;;;2.40;;
33902;SDS011;20194;50.950;5.346;2023-07-29T05:49:49;4.88;;;2.60;;
33902;SDS011;20194;50.950;5.346;2023-07-29T05:52:15;3.70;;;2.55;;
33902;SDS011;20194;50.950;5.346;2023-07-29T05:54:40;5.07;;;2.10;;
33902;SDS011;20194;50.950;5.346;2023-07-29T05:57:08;4.45;;;2.47;;
33902;SDS011;20194;50.950;5.346;2023-07-29T05:59:34;8.30;;;2.00;;
33902;SDS011;20194;50.950;5.346;2023-07-29T06:02:00;3.50;;;1.80;;
33902;SDS011;20194;50.950;5.346;2023-07-29T06:04:25;4.93;;;2.17;;
33902;SDS011;20194;50.950;5.346;2023-07-29T06:06:51;3.67;;;1.67;;
33902;SDS011;20194;50.950;5.346;2023-07-29T06:09:17;3.00;;;1.95;;
33902;SDS011;20194;50.950;5.346;2023-07-29T06:11:42;6.60;;;2.15;;
33902;SDS011;20194;50.950;5.346;2023-07-29T06:14:08;2.75;;;1.85;;
33902;SDS011;20194;50.950;5.346;2023-07-29T06:16:34;4.43;;;1.90;;
33902;SDS011;20194;50.950;5.346;2023-07-29T06:19:00;3.40;;;1.88;;
33902;SDS011;20194;50.950;5.346;2023-07-29T06:21:25;4.82;;;1.90;;
33902;SDS011;20194;50.950;5.346;2023-07-29T06:23:51;2.47;;;1.58;;
33902;SDS011;20194;50.950;5.346;2023-07-29T06:26:17;5.05;;;1.67;;
33902;SDS011;20194;50.950;5.346;2023-07-29T06:28:42;8.25;;;2.00;;
33902;SDS011;20194;50.950;5.346;2023-07-29T06:31:08;4.18;;;1.92;;
33902;SDS011;20194;50.950;5.346;2023-07-29T06:33:34;3.20;;;1.70;;
33902;SDS011;20194;50.950;5.346;2023-07-29T06:35:59;3.65;;;1.50;;
33902;SDS011;20194;50.950;5.346;2023-07-29T06:38:25;7.88;;;2.20;;
33902;SDS011;20194;50.950;5.346;2023-07-29T06:40:50;6.13;;;2.10;;
33902;SDS011;20194;50.950;5.346;2023-07-29T06:43:17;3.25;;;1.92;;
33902;SDS011;20194;50.950;5.346;2023-07-29T06:45:43;4.53;;;1.80;;
33902;SDS011;20194;50.950;5.346;2023-07-29T06:48:08;4.60;;;1.65;;
33902;SDS011;20194;50.950;5.346;2023-07-29T06:50:34;6.20;;;1.63;;
33902;SDS011;20194;50.950;5.346;2023-07-29T06:53:00;5.97;;;1.30;;
33902;SDS011;20194;50.950;5.346;2023-07-29T06:55:26;3.40;;;1.42;;
33902;SDS011;20194;50.950;5.346;2023-07-29T06:57:52;4.72;;;1.65;;
33902;SDS011;20194;50.950;5.346;2023-07-29T07:00:17;2.13;;;1.38;;
33902;SDS011;20194;50.950;5.346;2023-07-29T07:02:43;6.00;;;1.45;;
33902;SDS011;20194;50.950;5.346;2023-07-29T07:05:09;5.10;;;1.38;;
33902;SDS011;20194;50.950;5.346;2023-07-29T07:07:34;1.35;;;1.25;;
33902;SDS011;20194;50.950;5.346;2023-07-29T07:10:00;2.72;;;1.02;;
33902;SDS011;20194;50.950;5.346;2023-07-29T07:12:26;1.25;;;1.15;;
33902;SDS011;20194;50.950;5.346;2023-07-29T07:14:52;4.50;;;1.70;;
33902;SDS011;20194;50.950;5.346;2023-07-29T07:17:17;3.65;;;1.60;;
33902;SDS011;20194;50.950;5.346;2023-07-29T07:19:43;2.42;;;1.35;;
33902;SDS011;20194;50.950;5.346;2023-07-29T07:22:09;3.63;;;1.20;;
33902;SDS011;20194;50.950;5.346;2023-07-29T07:24:35;4.15;;;1.35;;
33902;SDS011;20194;50.950;5.346;2023-07-29T07:27:00;3.53;;;1.20;;
33902;SDS011;20194;50.950;5.346;2023-07-29T07:29:27;2.85;;;1.48;;
33902;SDS011;20194;50.950;5.346;2023-07-29T07:31:53;5.78;;;1.00;;
33902;SDS011;20194;50.950;5.346;2023-07-29T07:34:22;2.67;;;1.00;;
33902;SDS011;20194;50.950;5.346;2023-07-29T07:36:49;8.55;;;1.20;;
33902;SDS011;20194;50.950;5.346;2023-07-29T07:39:15;3.55;;;1.40;;
33902;SDS011;20194;50.950;5.346;2023-07-29T07:41:41;2.15;;;1.10;;
33902;SDS011;20194;50.950;5.346;2023-07-29T07:44:07;5.93;;;1.33;;
33902;SDS011;20194;50.950;5.346;2023-07-29T07:46:33;3.80;;;1.27;;
33902;SDS011;20194;50.950;5.346;2023-07-29T07:48:59;3.72;;;1.40;;
33902;SDS011;20194;50.950;5.346;2023-07-29T07:51:24;2.65;;;1.10;;
33902;SDS011;20194;50.950;5.346;2023-07-29T07:53:50;4.00;;;1.52;;
33902;SDS011;20194;50.950;5.346;2023-07-29T07:56:16;2.60;;;0.95;;
33902;SDS011;20194;50.950;5.346;2023-07-29T07:58:43;2.95;;;1.75;;
33902;SDS011;20194;50.950;5.346;2023-07-29T08:01:09;7.72;;;2.03;;
33902;SDS011;20194;50.950;5.346;2023-07-29T08:03:36;1.45;;;1.35;;
33902;SDS011;20194;50.950;5.346;2023-07-29T08:06:02;3.25;;;1.02;;
33902;SDS011;20194;50.950;5.346;2023-07-29T08:08:28;3.15;;;1.23;;
33902;SDS011;20194;50.950;5.346;2023-07-29T08:10:54;3.72;;;1.42;;
33902;SDS011;20194;50.950;5.346;2023-07-29T08:13:21;3.90;;;1.20;;
33902;SDS011;20194;50.950;5.346;2023-07-29T08:15:49;1.38;;;1.13;;
33902;SDS011;20194;50.950;5.346;2023-07-29T08:18:16;2.50;;;1.30;;
33902;SDS011;20194;50.950;5.346;2023-07-29T08:20:54;1.05;;;0.95;;
33902;SDS011;20194;50.950;5.346;2023-07-29T08:23:24;3.90;;;1.30;;
33902;SDS011;20194;50.950;5.346;2023-07-29T08:25:51;1.50;;;1.35;;
33902;SDS011;20194;50.950;5.346;2023-07-29T08:28:18;1.75;;;1.20;;
33902;SDS011;20194;50.950;5.346;2023-07-29T08:30:44;6.00;;;1.20;;
33902;SDS011;20194;50.950;5.346;2023-07-29T08:33:10;2.33;;;1.15;;
33902;SDS011;20194;50.950;5.346;2023-07-29T08:35:35;3.78;;;1.70;;
33902;SDS011;20194;50.950;5.346;2023-07-29T08:38:02;3.92;;;1.45;;
33902;SDS011;20194;50.950;5.346;2023-07-29T08:40:29;1.20;;;1.10;;
33902;SDS011;20194;50.950;5.346;2023-07-29T08:42:56;2.63;;;1.40;;
33902;SDS011;20194;50.950;5.346;2023-07-29T08:45:23;2.03;;;1.40;;
33902;SDS011;20194;50.950;5.346;2023-07-29T08:47:50;2.63;;;1.23;;
33902;SDS011;20194;50.950;5.346;2023-07-29T08:50:22;2.80;;;1.35;;
33902;SDS011;20194;50.950;5.346;2023-07-29T08:52:49;1.50;;;1.33;;
33902;SDS011;20194;50.950;5.346;2023-07-29T08:55:17;4.35;;;1.33;;
33902;SDS011;20194;50.950;5.346;2023-07-29T08:57:44;1.50;;;1.40;;
33902;SDS011;20194;50.950;5.346;2023-07-29T09:00:10;6.28;;;1.95;;
33902;SDS011;20194;50.950;5.346;2023-07-29T09:02:37;4.60;;;1.38;;
33902;SDS011;20194;50.950;5.346;2023-07-29T09:05:03;10.07;;;3.50;;
33902;SDS011;20194;50.950;5.346;2023-07-29T09:07:30;2.30;;;1.25;;
33902;SDS011;20194;50.950;5.346;2023-07-29T09:09:58;3.40;;;1.52;;
33902;SDS011;20194;50.950;5.346;2023-07-29T09:12:23;1.25;;;1.15;;
33902;SDS011;20194;50.950;5.346;2023-07-29T09:14:52;3.45;;;1.30;;
33902;SDS011;20194;50.950;5.346;2023-07-29T09:17:19;2.83;;;1.73;;
33902;SDS011;20194;50.950;5.346;2023-07-29T09:19:50;2.70;;;1.38;;
33902;SDS011;20194;50.950;5.346;2023-07-29T09:22:21;2.78;;;1.20;;
33902;SDS011;20194;50.950;5.346;2023-07-29T09:24:47;9.48;;;1.42;;
33902;SDS011;20194;50.950;5.346;2023-07-29T09:27:26;1.63;;;0.93;;
33902;SDS011;20194;50.950;5.346;2023-07-29T09:29:53;5.75;;;1.17;;
33902;SDS011;20194;50.950;5.346;2023-07-29T09:32:20;3.05;;;1.25;;
33902;SDS011;20194;50.950;5.346;2023-07-29T09:34:47;3.22;;;1.25;;
33902;SDS011;20194;50.950;5.346;2023-07-29T09:37:17;2.10;;;1.25;;
33902;SDS011;20194;50.950;5.346;2023-07-29T09:39:49;2.72;;;1.20;;
33902;SDS011;20194;50.950;5.346;2023-07-29T09:42:17;1.92;;;1.30;;
33902;SDS011;20194;50.950;5.346;2023-07-29T09:44:44;4.03;;;1.30;;
33902;SDS011;20194;50.950;5.346;2023-07-29T09:47:14;2.30;;;1.10;;
33902;SDS011;20194;50.950;5.346;2023-07-29T09:49:44;3.03;;;1.02;;
33902;SDS011;20194;50.950;5.346;2023-07-29T09:52:10;2.58;;;1.20;;
33902;SDS011;20194;50.950;5.346;2023-07-29T09:54:36;1.23;;;1.05;;
33902;SDS011;20194;50.950;5.346;2023-07-29T09:57:02;4.05;;;1.52;;
33902;SDS011;20194;50.950;5.346;2023-07-29T09:59:28;2.80;;;1.10;;
33902;SDS011;20194;50.950;5.346;2023-07-29T10:01:58;2.63;;;1.52;;
33902;SDS011;20194;50.950;5.346;2023-07-29T10:04:24;3.05;;;1.20;;
33902;SDS011;20194;50.950;5.346;2023-07-29T10:06:50;1.90;;;1.17;;
33902;SDS011;20194;50.950;5.346;2023-07-29T10:09:17;2.05;;;1.17;;
33902;SDS011;20194;50.950;5.346;2023-07-29T10:11:45;2.97;;;1.20;;
33902;SDS011;20194;50.950;5.346;2023-07-29T10:14:11;1.90;;;1.38;;
33902;SDS011;20194;50.950;5.346;2023-07-29T10:16:37;1.73;;;1.48;;
33902;SDS011;20194;50.950;5.346;2023-07-29T10:19:04;1.23;;;1.13;;
33902;SDS011;20194;50.950;5.346;2023-07-29T10:21:32;3.22;;;1.38;;
33902;SDS011;20194;50.950;5.346;2023-07-29T10:23:59;1.05;;;0.98;;
33902;SDS011;20194;50.950;5.346;2023-07-29T10:26:28;5.07;;;1.70;;
33902;SDS011;20194;50.950;5.346;2023-07-29T10:28:57;3.70;;;2.08;;
33902;SDS011;20194;50.950;5.346;2023-07-29T10:31:29;2.38;;;1.45;;
33902;SDS011;20194;50.950;5.346;2023-07-29T10:33:56;2.65;;;1.52;;
33902;SDS011;20194;50.950;5.346;2023-07-29T10:36:22;2.72;;;1.50;;
33902;SDS011;20194;50.950;5.346;2023-07-29T10:38:49;3.63;;;1.60;;
33902;SDS011;20194;50.950;5.346;2023-07-29T10:41:15;1.77;;;1.30;;
33902;SDS011;20194;50.950;5.346;2023-07-29T10:43:41;1.35;;;1.20;;
33902;SDS011;20194;50.950;5.346;2023-07-29T10:46:19;5.03;;;1.80;;
33902;SDS011;20194;50.950;5.346;2023-07-29T10:51:35;4.78;;;1.23;;
33902;SDS011;20194;50.950;5.346;2023-07-29T10:54:03;1.52;;;1.35;;
33902;SDS011;20194;50.950;5.346;2023-07-29T10:56:36;2.85;;;1.27;;
33902;SDS011;20194;50.950;5.346;2023-07-29T11:01:38;1.52;;;1.30;;
33902;SDS011;20194;50.950;5.346;2023-07-29T11:07:01;3.83;;;1.40;;
33902;SDS011;20194;50.950;5.346;2023-07-29T11:09:41;2.22;;;1.63;;
33902;SDS011;20194;50.950;5.346;2023-07-29T11:15:28;1.85;;;1.65;;
33902;SDS011;20194;50.950;5.346;2023-07-29T11:18:00;2.95;;;2.10;;
33902;SDS011;20194;50.950;5.346;2023-07-29T11:22:54;1.77;;;1.50;;
33902;SDS011;20194;50.950;5.346;2023-07-29T11:25:21;3.28;;;1.48;;
33902;SDS011;20194;50.950;5.346;2023-07-29T11:27:48;3.83;;;2.10;;
33902;SDS011;20194;50.950;5.346;2023-07-29T11:30:16;3.13;;;1.90;;
33902;SDS011;20194;50.950;5.346;2023-07-29T11:32:43;5.50;;;2.10;;
33902;SDS011;20194;50.950;5.346;2023-07-29T11:35:13;4.47;;;2.28;;
33902;SDS011;20194;50.950;5.346;2023-07-29T11:37:40;4.25;;;2.08;;
33902;SDS011;20194;50.950;5.346;2023-07-29T11:40:07;4.75;;;1.65;;
33902;SDS011;20194;50.950;5.346;2023-07-29T11:42:36;2.33;;;1.92;;
33902;SDS011;20194;50.950;5.346;2023-07-29T11:45:03;4.68;;;1.85;;
33902;SDS011;20194;50.950;5.346;2023-07-29T11:47:31;3.85;;;2.45;;
33902;SDS011;20194;50.950;5.346;2023-07-29T11:50:03;5.63;;;2.08;;
33902;SDS011;20194;50.950;5.346;2023-07-29T11:52:31;2.72;;;2.10;;
33902;SDS011;20194;50.950;5.346;2023-07-29T11:54:58;3.35;;;2.08;;
33902;SDS011;20194;50.950;5.346;2023-07-29T11:57:23;2.65;;;2.20;;
33902;SDS011;20194;50.950;5.346;2023-07-29T11:59:49;3.63;;;1.85;;
33902;SDS011;20194;50.950;5.346;2023-07-29T12:02:16;4.75;;;2.35;;
33902;SDS011;20194;50.950;5.346;2023-07-29T12:04:44;3.65;;;2.05;;
33902;SDS011;20194;50.950;5.346;2023-07-29T12:07:12;4.20;;;2.70;;
33902;SDS011;20194;50.950;5.346;2023-07-29T12:09:40;3.38;;;2.22;;
33902;SDS011;20194;50.950;5.346;2023-07-29T12:12:07;4.22;;;1.90;;
33902;SDS011;20194;50.950;5.346;2023-07-29T12:14:33;4.82;;;2.45;;
33902;SDS011;20194;50.950;5.346;2023-07-29T12:17:00;5.00;;;2.22;;
33902;SDS011;20194;50.950;5.346;2023-07-29T12:19:36;7.85;;;2.35;;
33902;SDS011;20194;50.950;5.346;2023-07-29T12:22:03;4.57;;;2.50;;
33902;SDS011;20194;50.950;5.346;2023-07-29T12:24:30;4.82;;;2.60;;
33902;SDS011;20194;50.950;5.346;2023-07-29T12:26:57;6.93;;;2.63;;
33902;SDS011;20194;50.950;5.346;2023-07-29T12:29:23;4.07;;;2.30;;
33902;SDS011;20194;50.950;5.346;2023-07-29T12:31:49;6.05;;;2.42;;
33902;SDS011;20194;50.950;5.346;2023-07-29T12:34:29;3.25;;;2.30;;
33902;SDS011;20194;50.950;5.346;2023-07-29T12:36:56;7.18;;;3.55;;
33902;SDS011;20194;50.950;5.346;2023-07-29T12:39:26;6.20;;;3.15;;
33902;SDS011;20194;50.950;5.346;2023-07-29T12:41:56;7.40;;;2.67;;
33902;SDS011;20194;50.950;5.346;2023-07-29T12:44:23;5.53;;;1.80;;
33902;SDS011;20194;50.950;5.346;2023-07-29T12:46:50;5.18;;;1.77;;
33902;SDS011;20194;50.950;5.346;2023-07-29T12:49:17;2.78;;;2.00;;
33902;SDS011;20194;50.950;5.346;2023-07-29T12:51:43;3.58;;;1.67;;
33902;SDS011;20194;50.950;5.346;2023-07-29T12:54:09;2.47;;;1.50;;
33902;SDS011;20194;50.950;5.346;2023-07-29T12:56:35;1.92;;;1.63;;
33902;SDS011;20194;50.950;5.346;2023-07-29T12:59:01;2.10;;;1.65;;
33902;SDS011;20194;50.950;5.346;2023-07-29T13:01:27;2.90;;;1.67;;
33902;SDS011;20194;50.950;5.346;2023-07-29T13:03:53;2.75;;;1.90;;
33902;SDS011;20194;50.950;5.346;2023-07-29T13:06:21;4.35;;;1.48;;
33902;SDS011;20194;50.950;5.346;2023-07-29T13:08:47;5.85;;;1.83;;
33902;SDS011;20194;50.950;5.346;2023-07-29T13:11:13;4.20;;;1.67;;
33902;SDS011;20194;50.950;5.346;2023-07-29T13:13:39;2.97;;;1.58;;
33902;SDS011;20194;50.950;5.346;2023-07-29T13:16:05;2.85;;;1.92;;
33902;SDS011;20194;50.950;5.346;2023-07-29T13:18:31;5.43;;;1.90;;
33902;SDS011;20194;50.950;5.346;2023-07-29T13:20:57;2.63;;;1.80;;
33902;SDS011;20194;50.950;5.346;2023-07-29T13:23:23;3.50;;;2.38;;
33902;SDS011;20194;50.950;5.346;2023-07-29T13:25:49;2.78;;;2.05;;
33902;SDS011;20194;50.950;5.346;2023-07-29T13:28:16;2.45;;;2.17;;
33902;SDS011;20194;50.950;5.346;2023-07-29T13:30:41;1.92;;;1.75;;
33902;SDS011;20194;50.950;5.346;2023-07-29T13:33:07;3.20;;;1.90;;
33902;SDS011;20194;50.950;5.346;2023-07-29T13:35:33;2.55;;;1.90;;
33902;SDS011;20194;50.950;5.346;2023-07-29T13:37:59;3.45;;;2.15;;
33902;SDS011;20194;50.950;5.346;2023-07-29T13:40:26;4.28;;;2.25;;
33902;SDS011;20194;50.950;5.346;2023-07-29T13:42:51;4.53;;;2.53;;
33902;SDS011;20194;50.950;5.346;2023-07-29T13:45:17;3.78;;;2.25;;
33902;SDS011;20194;50.950;5.346;2023-07-29T13:47:43;2.75;;;2.10;;
33902;SDS011;20194;50.950;5.346;2023-07-29T13:50:09;3.85;;;2.25;;
33902;SDS011;20194;50.950;5.346;2023-07-29T13:52:36;3.67;;;2.28;;
33902;SDS011;20194;50.950;5.346;2023-07-29T13:55:02;6.00;;;2.22;;
33902;SDS011;20194;50.950;5.346;2023-07-29T13:57:28;3.30;;;1.70;;
33902;SDS011;20194;50.950;5.346;2023-07-29T13:59:54;3.92;;;2.10;;
33902;SDS011;20194;50.950;5.346;2023-07-29T14:02:20;2.30;;;2.03;;
33902;SDS011;20194;50.950;5.346;2023-07-29T14:04:45;3.28;;;2.67;;
33902;SDS011;20194;50.950;5.346;2023-07-29T14:07:11;7.13;;;2.35;;
33902;SDS011;20194;50.950;5.346;2023-07-29T14:09:37;2.63;;;1.90;;
33902;SDS011;20194;50.950;5.346;2023-07-29T14:12:03;5.82;;;2.15;;
33902;SDS011;20194;50.950;5.346;2023-07-29T14:14:30;4.47;;;1.88;;
33902;SDS011;20194;50.950;5.346;2023-07-29T14:16:56;2.53;;;1.65;;
33902;SDS011;20194;50.950;5.346;2023-07-29T14:19:22;3.78;;;2.03;;
33902;SDS011;20194;50.950;5.346;2023-07-29T14:21:48;2.65;;;2.05;;
33902;SDS011;20194;50.950;5.346;2023-07-29T14:24:14;3.75;;;2.25;;
33902;SDS011;20194;50.950;5.346;2023-07-29T14:26:41;4.68;;;1.70;;
33902;SDS011;20194;50.950;5.346;2023-07-29T14:29:07;4.65;;;1.58;;
33902;SDS011;20194;50.950;5.346;2023-07-29T14:31:33;2.47;;;1.58;;
33902;SDS011;20194;50.950;5.346;2023-07-29T14:33:58;2.10;;;1.70;;
33902;SDS011;20194;50.950;5.346;2023-07-29T14:36:25;4.82;;;1.63;;
33902;SDS011;20194;50.950;5.346;2023-07-29T14:38:51;3.05;;;1.67;;
33902;SDS011;20194;50.950;5.346;2023-07-29T14:41:17;1.52;;;1.42;;
33902;SDS011;20194;50.950;5.346;2023-07-29T14:43:43;1.70;;;1.60;;
33902;SDS011;20194;50.950;5.346;2023-07-29T14:46:08;2.38;;;1.58;;
33902;SDS011;20194;50.950;5.346;2023-07-29T14:48:35;3.72;;;1.48;;
33902;SDS011;20194;50.950;5.346;2023-07-29T14:51:00;2.03;;;1.77;;
33902;SDS011;20194;50.950;5.346;2023-07-29T14:53:26;1.95;;;1.65;;
33902;SDS011;20194;50.950;5.346;2023-07-29T14:55:52;1.77;;;1.30;;
33902;SDS011;20194;50.950;5.346;2023-07-29T14:58:17;3.63;;;0.90;;
33902;SDS011;20194;50.950;5.346;2023-07-29T15:00:43;2.55;;;1.38;;
33902;SDS011;20194;50.950;5.346;2023-07-29T15:03:09;1.20;;;1.08;;
33902;SDS011;20194;50.950;5.346;2023-07-29T15:05:34;2.63;;;1.23;;